Time;durP1;ratioP1;P1;durP2;ratioP2;P2;SDS_P1;SDS_P2;PMS_P1;PMS_P2;Temp;Humidity;BMP_temperature;BMP_pressure;BME280_temperature;BME280_humidity;BME280_pressure;Samples;Min_cycle;Max_cycle;Signal;HPM_P1;HPM_P2
2022/05/10 00:01:24;;;;;;;8.73;7.83;;;14.50;99.90;;;;;;5021126;28;20433;-82
2022/05/10 00:04:10;;;;;;;9.93;8.53;;;14.50;99.90;;;;;;5053028;28;20421;-78
2022/05/10 00:06:56;;;;;;;8.40;7.60;;;14.40;99.90;;;;;;5053695;28;20802;-78
2022/05/10 00:09:40;;;;;;;15.13;8.70;;;14.40;99.90;;;;;;5055357;28;20413;-78
2022/05/10 00:12:25;;;;;;;10.73;8.50;;;14.30;99.90;;;;;;5050842;28;20428;-81
2022/05/10 00:15:10;;;;;;;8.63;7.73;;;14.30;99.90;;;;;;5034098;28;20448;-81
2022/05/10 00:17:55;;;;;;;12.37;7.17;;;14.20;99.90;;;;;;5047530;28;20382;-80
2022/05/10 00:20:41;;;;;;;9.97;7.20;;;14.20;99.90;;;;;;5048654;28;20444;-81
2022/05/10 00:23:26;;;;;;;9.97;7.10;;;14.10;99.90;;;;;;5047881;28;20386;-81
2022/05/10 00:26:11;;;;;;;10.50;8.60;;;14.20;99.90;;;;;;5062849;28;20409;-82
2022/05/10 00:28:55;;;;;;;10.07;7.80;;;14.10;99.90;;;;;;5033334;28;20441;-81
2022/05/10 00:31:40;;;;;;;11.80;7.77;;;14.20;99.90;;;;;;5061757;28;20393;-81
2022/05/10 00:34:29;;;;;;;9.10;7.70;;;14.10;99.90;;;;;;5047036;28;20436;-81
2022/05/10 00:37:18;;;;;;;10.50;7.10;;;14.10;99.90;;;;;;5033148;28;20390;-81
2022/05/10 00:40:03;;;;;;;9.37;8.47;;;14.10;99.90;;;;;;5047155;28;20526;-82
2022/05/10 00:43:16;;;;;;;7.70;6.93;;;14.00;99.90;;;;;;5061543;28;20774;-82
2022/05/10 00:46:23;;;;;;;7.20;6.50;;;14.00;99.90;;;;;;5047876;28;20887;-81
2022/05/10 00:49:22;;;;;;;8.20;7.50;;;13.90;99.90;;;;;;5036542;28;20385;-81
2022/05/10 00:52:36;;;;;;;8.27;7.37;;;13.90;99.90;;;;;;5052480;28;20409;-81
2022/05/10 00:55:26;;;;;;;8.23;7.47;;;13.80;99.90;;;;;;5041469;28;20433;-82
2022/05/10 00:58:29;;;;;;;7.90;7.10;;;13.70;99.90;;;;;;5046589;28;20414;-82
2022/05/10 01:01:23;;;;;;;8.30;7.60;;;13.50;99.90;;;;;;5047124;28;20543;-81
2022/05/10 01:04:26;;;;;;;7.60;7.00;;;13.50;99.90;;;;;;5062310;28;20370;-80
2022/05/10 01:07:22;;;;;;;7.70;6.70;;;13.30;99.90;;;;;;5041994;28;20406;-81
2022/05/10 01:10:13;;;;;;;9.13;8.10;;;13.30;99.90;;;;;;5026510;28;20394;-81
2022/05/10 01:13:15;;;;;;;10.43;7.43;;;13.30;99.90;;;;;;5026962;28;20395;-81
2022/05/10 01:16:09;;;;;;;8.23;7.53;;;13.20;99.90;;;;;;5014748;28;21007;-82
2022/05/10 01:18:55;;;;;;;10.77;9.10;;;13.10;99.90;;;;;;5027243;28;20449;-81
2022/05/10 01:22:14;;;;;;;8.63;7.83;;;13.00;99.90;;;;;;5013338;28;20463;-82
2022/05/10 01:25:17;;;;;;;8.63;7.73;;;13.00;99.90;;;;;;5013375;28;20414;-80
2022/05/10 01:28:16;;;;;;;9.20;8.30;;;12.90;99.90;;;;;;5014005;28;20390;-81
2022/05/10 01:31:08;;;;;;;10.70;8.07;;;12.80;99.90;;;;;;5014484;28;20446;-81
2022/05/10 01:34:00;;;;;;;9.20;8.30;;;12.80;99.90;;;;;;5026241;28;20813;-81
2022/05/10 01:37:00;;;;;;;9.90;9.00;;;12.90;99.90;;;;;;5043092;28;20400;-78
2022/05/10 01:39:55;;;;;;;8.23;7.37;;;12.90;99.90;;;;;;5046638;28;20488;-78
2022/05/10 01:42:50;;;;;;;9.30;8.40;;;12.90;99.90;;;;;;5032035;28;20398;-78
2022/05/10 01:45:43;;;;;;;12.70;9.03;;;12.90;99.90;;;;;;5027281;28;20434;-81
2022/05/10 01:48:34;;;;;;;9.70;8.70;;;12.90;99.90;;;;;;5013546;28;20883;-81
2022/05/10 01:51:28;;;;;;;8.53;7.83;;;12.60;99.90;;;;;;5013873;28;20399;-81
2022/05/10 01:54:51;;;;;;;8.40;7.60;;;12.60;99.90;;;;;;5027429;28;20518;-80
2022/05/10 01:57:38;;;;;;;10.07;9.13;;;12.70;99.90;;;;;;5030410;28;20403;-81
2022/05/10 02:00:26;;;;;;;10.97;9.80;;;12.70;99.90;;;;;;5027882;28;20458;-81
2022/05/10 02:03:28;;;;;;;11.10;8.63;;;12.70;99.90;;;;;;5033251;28;20763;-81
2022/05/10 02:06:31;;;;;;;10.30;8.87;;;12.70;99.90;;;;;;5025817;28;20462;-81
2022/05/10 02:09:31;;;;;;;9.63;8.63;;;12.70;99.90;;;;;;5041741;28;20433;-81
2022/05/10 02:12:46;;;;;;;9.60;8.60;;;12.60;99.90;;;;;;5025730;28;20414;-81
2022/05/10 02:15:46;;;;;;;9.97;8.97;;;12.60;99.90;;;;;;5009843;28;20429;-81
2022/05/10 02:18:41;;;;;;;9.13;8.33;;;12.50;99.90;;;;;;4986203;28;20412;-81
2022/05/10 02:21:32;;;;;;;9.67;7.63;;;12.40;99.90;;;;;;4986390;28;20429;-81
2022/05/10 02:24:24;;;;;;;14.27;7.90;;;12.20;99.90;;;;;;4999605;28;20405;-82
2022/05/10 02:27:17;;;;;;;8.90;8.10;;;12.20;99.90;;;;;;4985671;28;20823;-80
2022/05/10 02:30:09;;;;;;;9.00;8.10;;;12.20;99.90;;;;;;4999958;28;20459;-82
2022/05/10 02:33:07;;;;;;;8.10;7.50;;;12.20;99.90;;;;;;4980035;28;20406;-81
2022/05/10 02:35:55;;;;;;;12.20;8.37;;;12.10;99.90;;;;;;4979796;28;20425;-81
2022/05/10 02:38:41;;;;;;;9.40;8.23;;;11.90;99.90;;;;;;4955992;28;20385;-81
2022/05/10 02:41:25;;;;;;;9.20;8.23;;;12.00;99.90;;;;;;4970138;28;20397;-82
2022/05/10 02:44:10;;;;;;;10.07;7.60;;;12.00;99.90;;;;;;4983452;28;20394;-81
2022/05/10 02:46:55;;;;;;;10.57;8.90;;;11.90;99.90;;;;;;4984336;28;20408;-81
2022/05/10 02:49:42;;;;;;;9.03;8.13;;;12.00;99.90;;;;;;4989283;28;20409;-81
2022/05/10 02:52:27;;;;;;;9.67;8.67;;;12.10;99.90;;;;;;5002878;28;20436;-81
2022/05/10 02:55:18;;;;;;;12.53;7.97;;;12.00;99.90;;;;;;4975507;28;20463;-81
2022/05/10 02:58:12;;;;;;;9.93;8.93;;;12.00;99.90;;;;;;4962433;28;20460;-81
2022/05/10 03:01:06;;;;;;;12.63;9.17;;;12.00;99.90;;;;;;4975791;28;20508;-81
2022/05/10 03:03:51;;;;;;;8.87;8.07;;;12.10;99.90;;;;;;5026847;28;20414;-81
2022/05/10 03:06:37;;;;;;;8.67;7.90;;;12.10;99.90;;;;;;5047996;28;20453;-81
2022/05/10 03:09:22;;;;;;;10.23;7.80;;;12.10;99.90;;;;;;5062879;28;20406;-81
2022/05/10 03:12:07;;;;;;;9.10;8.30;;;11.90;99.90;;;;;;5049050;28;20913;-81
2022/05/10 03:14:54;;;;;;;10.03;9.03;;;11.90;99.90;;;;;;5064203;28;20436;-81
2022/05/10 03:17:38;;;;;;;10.47;8.90;;;12.00;99.90;;;;;;5063394;28;20901;-81
2022/05/10 03:20:24;;;;;;;7.70;6.90;;;11.90;99.90;;;;;;5063409;28;20433;-81
2022/05/10 03:23:08;;;;;;;9.97;8.97;;;11.80;99.90;;;;;;5048110;28;20437;-80
2022/05/10 03:25:56;;;;;;;10.43;8.03;;;11.80;99.90;;;;;;5048204;28;20374;-81
2022/05/10 03:28:41;;;;;;;8.70;7.90;;;11.80;99.90;;;;;;5048999;28;20997;-81
2022/05/10 03:31:27;;;;;;;9.47;8.43;;;11.60;99.90;;;;;;5041805;28;20398;-81
2022/05/10 03:37:14;;;;;;;10.43;9.30;;;11.70;99.90;;;;;;5028924;28;20381;-81
2022/05/10 03:39:59;;;;;;;8.97;7.83;;;11.70;99.90;;;;;;5013407;28;20520;-81
2022/05/10 03:42:48;;;;;;;10.00;9.10;;;11.70;99.90;;;;;;5040313;28;20968;-82
2022/05/10 03:45:33;;;;;;;11.23;9.03;;;11.60;99.90;;;;;;5023441;28;20535;-80
2022/05/10 03:48:18;;;;;;;9.20;8.30;;;11.70;99.90;;;;;;5014144;28;20430;-81
2022/05/10 03:51:03;;;;;;;10.90;8.50;;;11.70;99.90;;;;;;5032974;28;20402;-81
2022/05/10 03:53:48;;;;;;;8.63;7.77;;;11.60;99.90;;;;;;5027721;28;20429;-80
2022/05/10 03:56:34;;;;;;;8.73;7.93;;;11.50;99.90;;;;;;5021460;28;20450;-81
2022/05/10 03:59:19;;;;;;;9.23;8.43;;;11.50;99.90;;;;;;5013510;28;20434;-81
2022/05/10 04:02:04;;;;;;;8.00;7.40;;;11.40;99.90;;;;;;5023452;28;20760;-82
2022/05/10 04:04:49;;;;;;;9.53;8.37;;;11.50;99.90;;;;;;5064106;28;20986;-81
2022/05/10 04:07:33;;;;;;;9.93;9.10;;;11.50;99.90;;;;;;5043044;28;20505;-81
2022/05/10 04:10:22;;;;;;;8.63;7.70;;;11.50;99.90;;;;;;5012643;28;20561;-81
2022/05/10 04:13:07;;;;;;;9.57;8.53;;;11.40;99.90;;;;;;5014672;28;20404;-81
2022/05/10 04:15:52;;;;;;;10.13;9.13;;;11.40;99.90;;;;;;5021648;28;20504;-81
2022/05/10 04:18:36;;;;;;;9.77;8.80;;;11.40;99.90;;;;;;5015149;28;20423;-80
2022/05/10 04:21:20;;;;;;;13.90;10.50;;;11.10;99.90;;;;;;5023465;28;20431;-80
2022/05/10 04:24:05;;;;;;;11.20;9.17;;;11.20;99.90;;;;;;5014545;28;20419;-81
2022/05/10 04:26:50;;;;;;;9.70;8.80;;;11.40;99.90;;;;;;5000433;28;20401;-81
2022/05/10 04:29:34;;;;;;;11.53;10.20;;;11.50;99.90;;;;;;5009690;28;20473;-81
2022/05/10 04:32:20;;;;;;;10.20;9.03;;;11.70;99.90;;;;;;4977374;28;20390;-79
2022/05/10 04:35:06;;;;;;;10.50;8.97;;;11.80;99.90;;;;;;4984642;28;20401;-80
2022/05/10 04:37:51;;;;;;;9.93;8.93;;;11.80;99.90;;;;;;4971394;28;20815;-81
2022/05/10 04:43:38;;;;;;;9.20;8.40;;;11.90;99.90;;;;;;5025179;28;20425;-81
2022/05/10 04:46:22;;;;;;;10.80;9.30;;;12.10;99.90;;;;;;4984929;28;20424;-82
2022/05/10 04:49:10;;;;;;;9.50;8.60;;;12.10;99.90;;;;;;5043969;28;20430;-81
2022/05/10 04:51:54;;;;;;;10.50;9.50;;;12.00;99.90;;;;;;5031331;28;20429;-79
2022/05/10 04:54:40;;;;;;;10.13;9.23;;;12.00;99.90;;;;;;5047210;28;20936;-81
2022/05/10 04:57:24;;;;;;;13.80;9.87;;;12.10;99.90;;;;;;5082948;28;20400;-82
2022/05/10 05:00:13;;;;;;;11.07;10.07;;;12.10;99.90;;;;;;5055402;28;20584;-80
2022/05/10 05:02:58;;;;;;;11.37;9.27;;;12.10;99.90;;;;;;5054844;28;20470;-81
2022/05/10 05:05:43;;;;;;;11.10;10.00;;;12.30;99.90;;;;;;5033234;28;20496;-81
2022/05/10 05:08:28;;;;;;;10.30;9.30;;;12.20;99.90;;;;;;5062971;28;20428;-81
2022/05/10 05:11:13;;;;;;;12.50;10.63;;;12.40;99.90;;;;;;5040871;28;20432;-80
2022/05/10 05:13:59;;;;;;;16.07;9.87;;;12.70;99.90;;;;;;5028364;28;20437;-81
2022/05/10 05:16:47;;;;;;;12.57;11.27;;;12.80;99.90;;;;;;5063384;28;20457;-82
2022/05/10 05:19:33;;;;;;;14.33;10.60;;;12.90;99.90;;;;;;5050263;28;20457;-80
2022/05/10 05:22:19;;;;;;;14.50;11.87;;;13.00;99.90;;;;;;5048763;28;20424;-79
2022/05/10 05:25:06;;;;;;;13.57;11.63;;;13.00;99.90;;;;;;5055845;28;20468;-82
2022/05/10 05:27:52;;;;;;;15.67;11.73;;;12.90;99.90;;;;;;5065668;28;20444;-79
2022/05/10 05:30:39;;;;;;;12.13;10.57;;;13.20;99.90;;;;;;5065333;28;20444;-83
2022/05/10 05:33:23;;;;;;;11.33;10.20;;;13.10;99.90;;;;;;5047241;28;20470;-80
2022/05/10 05:36:10;;;;;;;13.23;11.37;;;13.20;99.90;;;;;;5039459;28;20423;-79
2022/05/10 05:38:57;;;;;;;11.23;10.20;;;13.20;99.90;;;;;;5038515;28;20441;-81
2022/05/10 05:41:42;;;;;;;10.60;9.60;;;13.10;99.90;;;;;;5027509;28;20425;-79
2022/05/10 05:44:30;;;;;;;12.13;10.87;;;13.30;99.90;;;;;;5019990;28;20465;-79
2022/05/10 05:47:15;;;;;;;13.07;10.10;;;13.30;99.90;;;;;;5038720;28;20427;-78
2022/05/10 05:50:00;;;;;;;11.43;10.20;;;13.60;99.90;;;;;;5025806;28;20975;-80
2022/05/10 05:52:46;;;;;;;12.53;11.23;;;13.60;99.90;;;;;;5027159;28;20466;-81
2022/05/10 05:55:31;;;;;;;12.07;10.53;;;13.70;99.90;;;;;;5023092;28;20479;-81
2022/05/10 05:58:18;;;;;;;12.70;10.43;;;14.00;99.90;;;;;;5024811;28;20445;-80
2022/05/10 06:01:13;;;;;;;13.00;9.30;;;14.00;99.90;;;;;;5035778;28;20451;-82
2022/05/10 06:03:58;;;;;;;11.87;10.60;;;14.20;99.90;;;;;;5025519;28;20450;-81
2022/05/10 06:06:42;;;;;;;17.30;10.37;;;14.50;99.90;;;;;;4995731;28;20563;-80
2022/05/10 06:09:27;;;;;;;18.80;11.37;;;14.80;99.90;;;;;;5022630;28;20509;-82
2022/05/10 06:12:14;;;;;;;11.37;10.23;;;15.00;99.90;;;;;;5008328;28;20446;-82
2022/05/10 06:15:07;;;;;;;10.27;8.90;;;15.20;99.90;;;;;;5017599;28;20434;-81
2022/05/10 06:17:52;;;;;;;10.13;9.20;;;15.10;99.90;;;;;;5037787;28;20776;-82
2022/05/10 06:20:39;;;;;;;17.17;11.10;;;15.40;99.90;;;;;;5039282;28;20501;-78
2022/05/10 06:23:24;;;;;;;15.10;11.13;;;15.50;99.90;;;;;;5059230;28;20494;-81
2022/05/10 06:26:09;;;;;;;11.20;10.07;;;15.60;99.90;;;;;;5055762;28;20467;-78
2022/05/10 06:28:54;;;;;;;10.33;9.27;;;15.80;99.90;;;;;;5066434;28;20450;-81
2022/05/10 06:31:41;;;;;;;14.43;10.60;;;15.70;99.90;;;;;;5035728;28;20533;-79
2022/05/10 06:34:26;;;;;;;11.20;10.03;;;15.80;99.90;;;;;;5056416;28;20470;-81
2022/05/10 06:40:15;;;;;;;11.43;10.40;;;16.10;99.90;;;;;;5059595;28;20484;-81
2022/05/10 06:43:00;;;;;;;10.03;8.87;;;16.30;99.90;;;;;;5068759;28;20468;-81
2022/05/10 06:45:45;;;;;;;10.23;9.27;;;16.50;99.90;;;;;;5066479;28;20437;-82
2022/05/10 06:48:29;;;;;;;10.07;9.13;;;16.50;99.90;;;;;;5039790;28;20421;-82
2022/05/10 06:51:16;;;;;;;9.90;8.67;;;16.70;99.90;;;;;;5040115;28;20474;-81
2022/05/10 06:54:01;;;;;;;10.30;8.90;;;16.60;99.90;;;;;;5040615;28;20441;-82
2022/05/10 06:56:48;;;;;;;9.10;7.90;;;16.70;99.90;;;;;;5061880;28;20521;-81
2022/05/10 06:59:33;;;;;;;10.50;8.87;;;16.90;99.90;;;;;;5056351;28;20458;-82
2022/05/10 07:02:18;;;;;;;10.40;9.10;;;16.90;99.90;;;;;;5053891;28;20532;-82
2022/05/10 07:05:02;;;;;;;9.40;8.50;;;17.10;99.90;;;;;;5023802;28;20487;-81
2022/05/10 07:07:49;;;;;;;9.83;9.03;;;17.00;99.90;;;;;;5043307;28;20925;-81
2022/05/10 07:10:35;;;;;;;9.20;8.30;;;17.10;99.90;;;;;;5032365;28;20506;-81
2022/05/10 07:13:24;;;;;;;9.37;8.73;;;17.30;99.90;;;;;;5053856;28;20764;-82
2022/05/10 07:16:09;;;;;;;10.00;9.13;;;17.30;99.90;;;;;;5046090;28;20420;-83
2022/05/10 07:18:55;;;;;;;9.87;9.07;;;17.30;99.90;;;;;;5055824;28;20445;-82
2022/05/10 07:21:40;;;;;;;9.47;8.77;;;17.50;99.90;;;;;;5027904;28;20420;-82
2022/05/10 07:24:24;;;;;;;9.70;8.80;;;17.60;99.90;;;;;;5029891;28;20430;-82
2022/05/10 07:27:10;;;;;;;7.83;7.13;;;17.70;99.90;;;;;;5037353;28;20429;-82
2022/05/10 07:29:54;;;;;;;11.70;9.43;;;17.70;99.90;;;;;;5041369;28;20436;-81
2022/05/10 07:32:39;;;;;;;8.90;8.00;;;17.80;99.90;;;;;;5044535;28;20429;-81
2022/05/10 07:38:30;;;;;;;10.27;9.47;;;17.90;99.90;;;;;;4987903;28;20485;-80
2022/05/10 07:41:18;;;;;;;9.77;8.87;;;18.00;99.90;;;;;;5009937;28;20435;-79
2022/05/10 07:44:04;;;;;;;9.33;8.53;;;18.00;99.90;;;;;;5016213;28;20451;-81
2022/05/10 07:46:49;;;;;;;9.17;8.37;;;18.10;99.90;;;;;;5001593;28;20501;-81
2022/05/10 07:49:34;;;;;;;9.03;8.10;;;18.40;99.90;;;;;;5007319;28;20460;-81
2022/05/10 07:52:18;;;;;;;8.90;8.20;;;18.50;99.90;;;;;;4973686;28;20456;-82
2022/05/10 07:55:03;;;;;;;7.70;7.10;;;18.60;99.90;;;;;;4979643;28;20504;-81
2022/05/10 07:57:49;;;;;;;9.70;8.67;;;18.60;99.90;;;;;;4979142;28;20440;-81
2022/05/10 08:00:39;;;;;;;9.73;8.83;;;18.70;99.90;;;;;;4952585;28;20471;-78
2022/05/10 08:03:28;;;;;;;9.27;8.33;;;18.80;99.90;;;;;;4965985;28;20518;-82
2022/05/10 08:06:15;;;;;;;9.23;8.30;;;18.90;99.90;;;;;;4962041;28;20554;-79
2022/05/10 08:09:00;;;;;;;8.90;8.17;;;19.10;99.90;;;;;;4962944;28;20453;-79
2022/05/10 08:11:48;;;;;;;10.30;9.30;;;19.10;99.90;;;;;;4991253;28;20435;-82
2022/05/10 08:14:32;;;;;;;10.27;9.07;;;19.20;99.90;;;;;;4991244;28;20463;-81
2022/05/10 08:17:17;;;;;;;9.03;8.00;;;19.40;99.90;;;;;;4983466;28;20460;-82
2022/05/10 08:20:01;;;;;;;11.10;8.40;;;19.40;99.90;;;;;;4984759;28;20475;-82
2022/05/10 08:22:48;;;;;;;7.97;7.33;;;19.50;99.90;;;;;;4986132;28;20518;-80
2022/05/10 08:25:34;;;;;;;9.33;7.10;;;19.60;99.90;;;;;;4996903;28;20559;-82
2022/05/10 08:28:23;;;;;;;10.53;8.00;;;19.70;99.90;;;;;;5025165;28;20469;-80
2022/05/10 08:31:10;;;;;;;8.90;8.03;;;19.70;99.90;;;;;;5021095;28;20446;-81
2022/05/10 08:33:54;;;;;;;9.17;7.37;;;19.80;99.90;;;;;;5026507;28;20477;-80
2022/05/10 08:36:41;;;;;;;10.30;8.60;;;19.90;99.90;;;;;;5051211;28;20472;-80
2022/05/10 08:39:25;;;;;;;8.00;7.20;;;20.00;99.90;;;;;;5019172;28;20453;-82
2022/05/10 08:42:32;;;;;;;8.00;7.30;;;20.20;99.90;;;;;;5026741;28;20476;-82
2022/05/10 08:45:18;;;;;;;10.17;7.83;;;20.20;99.90;;;;;;5051828;28;20498;-79
2022/05/10 08:48:03;;;;;;;9.63;6.57;;;20.40;99.90;;;;;;5011753;28;20421;-83
2022/05/10 08:50:48;;;;;;;7.73;7.20;;;20.50;99.90;;;;;;5036584;28;20461;-82
2022/05/10 08:53:34;;;;;;;8.10;7.40;;;20.60;99.90;;;;;;5036184;28;20487;-81
2022/05/10 08:56:29;;;;;;;7.60;7.00;;;20.80;99.90;;;;;;5038520;28;20624;-81
2022/05/10 08:59:32;;;;;;;9.27;7.60;;;20.90;99.90;;;;;;5040106;28;20464;-80
2022/05/10 09:02:22;;;;;;;7.77;6.97;;;20.90;99.90;;;;;;5038210;28;20449;-81
2022/05/10 09:05:20;;;;;;;8.20;7.50;;;20.90;99.90;;;;;;5018787;28;20520;-81
2022/05/10 09:08:21;;;;;;;7.10;6.47;;;21.00;99.90;;;;;;5021932;28;20484;-80
2022/05/10 09:11:12;;;;;;;6.80;6.10;;;21.10;99.90;;;;;;5016764;28;20458;-82
2022/05/10 09:13:56;;;;;;;7.00;6.47;;;21.30;99.90;;;;;;5051705;28;21010;-82
2022/05/10 09:16:41;;;;;;;7.10;6.40;;;21.40;99.90;;;;;;5022183;28;20476;-81
2022/05/10 09:19:39;;;;;;;7.57;6.80;;;21.40;99.90;;;;;;5040651;28;20477;-78
2022/05/10 09:22:50;;;;;;;8.30;7.33;;;21.50;99.90;;;;;;5054062;28;20426;-82
2022/05/10 09:25:38;;;;;;;6.90;6.37;;;21.50;99.90;;;;;;5039549;28;20421;-80
2022/05/10 09:28:37;;;;;;;9.53;7.10;;;21.50;99.90;;;;;;5020453;28;20433;-82
2022/05/10 09:37:40;;;;;;;7.43;6.20;;;21.70;99.90;;;;;;5044382;28;20433;-81
2022/05/10 09:40:32;;;;;;;7.00;6.50;;;21.80;99.90;;;;;;5027469;28;20461;-82
2022/05/10 09:43:32;;;;;;;6.90;6.30;;;22.10;99.90;;;;;;5017291;28;20449;-80
2022/05/10 09:46:24;;;;;;;7.00;6.40;;;22.20;99.90;;;;;;5029690;28;20445;-79
2022/05/10 09:49:30;;;;;;;7.33;6.50;;;22.60;99.90;;;;;;4997615;28;20429;-78
2022/05/10 09:52:19;;;;;;;6.47;5.77;;;22.40;99.90;;;;;;4985467;28;20834;-80
2022/05/10 09:55:13;;;;;;;8.53;7.30;;;22.50;99.90;;;;;;4976185;28;20570;-83
2022/05/10 09:58:16;;;;;;;6.60;6.10;;;22.60;99.90;;;;;;4974463;28;20445;-80
2022/05/10 10:01:05;;;;;;;8.07;7.27;;;23.00;99.90;;;;;;4971862;28;20563;-81
2022/05/10 10:03:50;;;;;;;7.00;6.50;;;23.00;99.90;;;;;;4956175;28;20803;-81
2022/05/10 10:06:34;;;;;;;7.87;7.17;;;23.20;99.90;;;;;;4955671;28;20485;-80
2022/05/10 10:09:32;;;;;;;6.80;6.20;;;23.10;99.90;;;;;;4955149;28;20433;-79
2022/05/10 10:12:35;;;;;;;8.47;6.10;;;23.30;99.90;;;;;;4960641;28;20528;-82
2022/05/10 10:15:43;;;;;;;7.23;5.77;;;23.10;99.90;;;;;;4911662;28;21673;-80
2022/05/10 10:18:47;;;;;;;5.70;5.33;;;23.30;99.90;;;;;;4919943;29;20502;-81
2022/05/10 10:21:41;;;;;;;8.00;6.10;;;23.20;99.90;;;;;;4955943;28;20685;-80
2022/05/10 10:24:37;;;;;;;9.93;5.67;;;23.20;99.90;;;;;;4942807;28;20422;-79
2022/05/10 10:27:39;;;;;;;5.13;4.83;;;23.30;99.90;;;;;;4930918;28;20549;-82
2022/05/10 10:30:34;;;;;;;6.60;5.70;;;23.80;99.80;;;;;;4955224;28;20470;-78
2022/05/10 10:33:51;;;;;;;5.23;4.83;;;23.80;97.40;;;;;;4927302;28;20500;-79
2022/05/10 10:36:44;;;;;;;9.43;5.90;;;24.00;98.80;;;;;;4948160;28;20486;-81
2022/05/10 10:39:36;;;;;;;5.57;5.13;;;24.30;98.30;;;;;;4979082;28;20521;-83
2022/05/10 10:42:50;;;;;;;6.10;5.60;;;24.30;99.90;;;;;;4994331;28;20944;-80
2022/05/10 10:45:44;;;;;;;5.40;4.50;;;24.20;97.20;;;;;;4984439;28;20422;-82
2022/05/10 10:48:52;;;;;;;8.40;6.27;;;24.40;95.40;;;;;;5041031;28;20494;-81
2022/05/10 10:51:37;;;;;;;5.57;5.20;;;24.70;96.20;;;;;;5019453;28;20435;-80
2022/05/10 10:54:27;;;;;;;6.20;5.70;;;24.70;94.50;;;;;;5003676;28;20431;-81
2022/05/10 10:57:44;;;;;;;7.37;6.77;;;24.70;94.10;;;;;;5011222;28;20475;-82
2022/05/10 11:00:37;;;;;;;6.33;5.73;;;24.50;93.10;;;;;;5013688;28;20480;-81
2022/05/10 11:03:34;;;;;;;5.40;5.00;;;24.90;93.30;;;;;;5014078;28;20477;-81
2022/05/10 11:06:25;;;;;;;6.80;6.20;;;24.80;92.10;;;;;;5024285;28;20519;-81
2022/05/10 11:09:45;;;;;;;7.80;5.43;;;24.70;91.20;;;;;;5054992;28;20420;-80
2022/05/10 11:12:52;;;;;;;5.47;4.53;;;25.00;90.90;;;;;;5052638;28;20420;-83
2022/05/10 11:16:00;;;;;;;5.00;4.60;;;24.80;88.30;;;;;;5056546;28;20441;-83
2022/05/10 11:19:20;;;;;;;6.43;5.93;;;25.10;89.40;;;;;;5056865;28;20461;-80
2022/05/10 11:22:21;;;;;;;4.47;4.20;;;25.20;87.00;;;;;;5037703;28;20519;-83
2022/05/10 11:25:22;;;;;;;5.10;4.70;;;25.90;87.00;;;;;;5041308;28;20457;-81
2022/05/10 11:28:21;;;;;;;5.87;5.47;;;25.80;78.90;;;;;;5037947;28;20461;-81
2022/05/10 11:31:15;;;;;;;4.57;4.17;;;26.20;76.30;;;;;;5048268;28;20494;-80
2022/05/10 11:34:26;;;;;;;4.80;4.40;;;26.00;76.80;;;;;;5028175;28;20972;-81
2022/05/10 11:37:16;;;;;;;5.20;4.80;;;26.40;79.40;;;;;;5044120;28;20484;-80
2022/05/10 11:40:31;;;;;;;5.80;5.20;;;25.90;76.30;;;;;;5041126;28;20530;-80
2022/05/10 11:43:36;;;;;;;6.80;4.93;;;26.00;80.60;;;;;;5047628;28;20528;-79
2022/05/10 11:46:46;;;;;;;5.37;4.93;;;26.60;76.30;;;;;;5051927;28;20447;-80
2022/05/10 11:49:55;;;;;;;5.17;4.77;;;26.70;74.20;;;;;;5056228;28;20456;-80
2022/05/10 11:53:11;;;;;;;6.20;5.70;;;26.60;74.60;;;;;;5041778;28;20442;-79
2022/05/10 11:55:59;;;;;;;5.50;5.10;;;26.20;74.00;;;;;;5041157;28;21056;-80
2022/05/10 11:58:44;;;;;;;5.27;4.87;;;26.60;74.60;;;;;;5043494;28;20429;-79
2022/05/10 12:01:54;;;;;;;5.50;5.10;;;27.20;73.10;;;;;;5038974;28;20429;-82
2022/05/10 12:04:43;;;;;;;6.20;5.70;;;26.90;73.20;;;;;;5016076;28;20434;-83
2022/05/10 12:07:34;;;;;;;6.03;5.63;;;27.50;74.00;;;;;;5033187;28;20505;-81
2022/05/10 12:10:40;;;;;;;4.80;4.40;;;26.90;72.60;;;;;;5021366;28;20488;-83
2022/05/10 12:23:16;;;;;;;5.93;5.43;;;26.00;74.60;;;;;;5022267;28;20493;-79
2022/05/10 12:26:03;;;;;;;5.40;5.03;;;26.10;77.50;;;;;;5018820;28;20903;-81
2022/05/10 12:28:48;;;;;;;6.40;5.90;;;25.60;75.30;;;;;;5024714;28;20510;-81
2022/05/10 12:31:58;;;;;;;5.17;4.83;;;25.60;76.00;;;;;;5034642;28;20444;-83
2022/05/10 12:34:53;;;;;;;5.67;5.17;;;25.50;77.00;;;;;;5019691;28;20481;-80
2022/05/10 12:38:00;;;;;;;5.87;5.47;;;25.40;79.70;;;;;;5013867;28;20442;-85
2022/05/10 12:41:01;;;;;;;6.50;6.00;;;25.10;79.70;;;;;;5011460;28;20655;-83
2022/05/10 12:44:10;;;;;;;6.90;6.30;;;24.80;81.80;;;;;;5007708;28;20567;-81
2022/05/10 12:47:12;;;;;;;6.00;5.50;;;24.90;80.60;;;;;;5017363;28;20629;-80
2022/05/10 12:50:30;;;;;;;5.80;5.30;;;25.30;79.70;;;;;;5013654;28;20426;-81
2022/05/10 12:53:27;;;;;;;6.37;5.80;;;25.60;77.20;;;;;;5022425;28;20461;-84
2022/05/10 12:56:22;;;;;;;10.00;5.20;;;26.50;74.10;;;;;;5042456;28;20444;-82
2022/05/10 12:59:31;;;;;;;4.43;4.13;;;26.20;72.20;;;;;;5038507;28;20844;-81
2022/05/10 13:02:21;;;;;;;5.80;5.40;;;26.70;69.90;;;;;;5020892;28;20417;-82
2022/05/10 13:05:13;;;;;;;7.47;5.67;;;27.00;70.10;;;;;;4980543;28;20534;-82
2022/05/10 13:08:18;;;;;;;5.83;5.40;;;27.90;69.50;;;;;;4995650;28;20428;-84
2022/05/10 13:11:05;;;;;;;5.90;5.50;;;27.70;70.00;;;;;;4951032;28;20435;-82
2022/05/10 13:13:53;;;;;;;5.77;5.37;;;27.40;70.00;;;;;;4991397;28;20432;-80
2022/05/10 13:16:45;;;;;;;6.00;5.50;;;27.30;68.30;;;;;;4976958;28;20439;-79
2022/05/10 13:19:30;;;;;;;5.63;5.13;;;27.50;68.80;;;;;;4992181;28;20466;-81
2022/05/10 13:22:18;;;;;;;5.77;5.27;;;26.90;68.90;;;;;;4995907;28;21034;-83
2022/05/10 13:25:06;;;;;;;6.63;5.93;;;27.00;70.40;;;;;;4987841;28;20464;-82
2022/05/10 13:27:52;;;;;;;4.90;4.53;;;26.90;71.80;;;;;;4996552;28;21002;-85
2022/05/10 13:30:41;;;;;;;5.70;5.20;;;27.20;69.70;;;;;;4994129;28;20506;-83
2022/05/10 13:33:33;;;;;;;6.00;5.50;;;27.10;68.50;;;;;;4979091;28;20453;-84
2022/05/10 13:36:19;;;;;;;5.83;5.33;;;27.10;68.80;;;;;;4965119;28;20434;-83
2022/05/10 13:39:07;;;;;;;6.03;5.53;;;27.60;70.60;;;;;;4995670;28;20447;-80
2022/05/10 13:41:59;;;;;;;5.83;5.40;;;27.30;68.80;;;;;;4968254;28;20463;-82
2022/05/10 13:44:44;;;;;;;5.67;5.23;;;27.30;70.00;;;;;;4968178;28;20451;-83
2022/05/10 13:47:31;;;;;;;7.97;6.00;;;26.20;70.20;;;;;;4954457;28;20793;-83
2022/05/10 13:50:23;;;;;;;5.27;4.77;;;26.40;71.90;;;;;;5003210;28;20434;-82
2022/05/10 13:53:18;;;;;;;5.00;4.70;;;26.80;69.90;;;;;;5017434;28;20434;-81
2022/05/10 13:56:04;;;;;;;5.70;5.20;;;26.30;69.50;;;;;;5015559;28;20455;-83
2022/05/10 13:58:49;;;;;;;5.60;5.20;;;26.00;71.20;;;;;;5026264;28;20451;-84
2022/05/10 14:01:49;;;;;;;5.20;4.70;;;26.40;70.90;;;;;;5006410;28;20519;-82
2022/05/10 14:04:41;;;;;;;6.07;5.10;;;26.20;70.40;;;;;;4992246;28;20439;-84
2022/05/10 14:07:31;;;;;;;7.63;6.93;;;26.10;69.40;;;;;;4982487;28;20904;-83
2022/05/10 14:10:19;;;;;;;5.03;4.63;;;26.20;70.40;;;;;;4967336;28;20439;-82
2022/05/10 14:13:07;;;;;;;5.43;4.67;;;26.40;70.30;;;;;;4986708;28;20545;-83
2022/05/10 14:15:52;;;;;;;5.20;4.70;;;26.50;71.40;;;;;;5000231;28;20431;-83
2022/05/10 14:18:40;;;;;;;6.13;5.40;;;26.40;71.30;;;;;;5026105;28;20465;-82
2022/05/10 14:21:27;;;;;;;6.07;5.40;;;26.40;72.80;;;;;;5032683;28;20481;-80
2022/05/10 14:24:12;;;;;;;5.37;4.80;;;26.10;70.60;;;;;;5003383;28;20428;-81
2022/05/10 14:27:13;;;;;;;6.90;5.57;;;26.40;70.70;;;;;;5024196;28;20436;-80
2022/05/10 14:29:59;;;;;;;5.90;5.37;;;26.30;70.70;;;;;;5022943;28;20451;-79
2022/05/10 14:32:44;;;;;;;6.70;6.10;;;26.60;70.60;;;;;;5025013;28;20426;-81
2022/05/10 14:35:35;;;;;;;5.10;4.70;;;26.40;73.50;;;;;;5040884;28;20464;-83
2022/05/10 14:38:24;;;;;;;4.87;4.50;;;27.10;66.80;;;;;;5064046;28;20444;-82
2022/05/10 14:41:10;;;;;;;5.30;4.80;;;27.00;68.20;;;;;;5048170;28;20479;-80
2022/05/10 14:43:55;;;;;;;4.97;4.63;;;27.50;65.40;;;;;;5038162;28;20468;-81
2022/05/10 14:46:51;;;;;;;5.57;5.07;;;27.50;65.50;;;;;;5052143;28;20481;-81
2022/05/10 14:49:40;;;;;;;5.03;4.73;;;27.60;63.50;;;;;;5033235;28;20432;-83
2022/05/10 14:52:28;;;;;;;5.63;5.10;;;27.10;66.10;;;;;;5069075;28;20431;-81
2022/05/10 14:55:31;;;;;;;5.97;5.37;;;27.00;66.00;;;;;;5030587;28;20457;-80
2022/05/10 14:58:30;;;;;;;5.50;5.00;;;26.00;67.20;;;;;;5010218;28;20434;-81
2022/05/10 15:01:33;;;;;;;5.20;4.70;;;25.70;69.10;;;;;;5014885;28;20457;-80
2022/05/10 15:04:33;;;;;;;6.80;5.40;;;25.90;68.80;;;;;;5029246;28;20469;-80
2022/05/10 15:07:23;;;;;;;5.40;4.40;;;25.90;69.80;;;;;;5028301;28;20465;-80
2022/05/10 15:10:09;;;;;;;5.17;4.80;;;26.30;68.30;;;;;;4999258;28;20415;-80
2022/05/10 15:16:04;;;;;;;10.93;5.40;;;26.50;67.40;;;;;;5028416;28;20465;-82
2022/05/10 15:18:58;;;;;;;5.07;4.67;;;26.60;68.80;;;;;;5014868;28;20496;-82